Pagina principale
METAR-TAF:

METAR-TAF

Aeroporti :

Aeroporto di Madera

Funchal, Madera, Portogallo

latitudine: 32-41-52N, longitudine: 016-46-28W, altezza: 59 m

Osservazione

Il bollettino è stato emesso 36 minuti fa, alle 06:30 UTC
Vento 3 kt da nord/nord-est, variando fra nord/nord-ovest e est/nord-est
Temperature 23°C
Umidità 65%
Pressione 1019 hPa
Visibilità 10 km o più
Nuvoloso ad un'altezza di 1600 ft

METAR: LPMA 190630Z 02003KT 330V070 9999 BKN016 23/16 Q1019

Ora: 08:06 (07:06 UTC)

Previsione

Il bollettino è stato emesso 2 ore e 6 minuti fa, alle 05:00 UTC
Previsione valida dal 19 alle 06 UTC al 20 alle 06 UTC
Vento 8 kt da nord/nord-est
Visibilità 10 km o più
Nubi sparse ad un'altezza di 1600 ft
Temporaneamente
dal 19 alle 06 UTC al 19 alle 09 UTC
Nuvoloso ad un'altezza di 1500 ft
Temporaneamente
dal 19 alle 06 UTC al 20 alle 06 UTC
Vento 5 kt da direzioni variabili

TAF: LPMA 190500Z 1906/2006 02008KT 9999 SCT016 TEMPO 1906/1909 BKN015 TEMPO 1906/2006 VRB05KT

Osservazioni e previsioni meteorologiche di più di 4000 aeroporti (messaggi METAR e TAF).

Le stazioni disponibili sono rappresentate dai dischi gialli e rossi sulla carta.

Puntare il mouse per vedere il nome della stazione.

Clicca sopra per visualizzare le osservazioni e previsioni meteorologiche.

Per cambiare la mappa : fare clic sui pulsanti verdi con una croce nera per ingrandire, il pulsante verde con un trattino per diminuire, o sulla freccia verde per le mappe adiacenti.


METAR-TAF: